Time,TemperatureF,DewpointF,PressureIn,WindDirection,WindDirectionDegrees,WindSpeedMPH,WindSpeedGustMPH,Humidity,HourlyPrecipIn,Conditions,Clouds,dailyrainin,SoftwareType,DateUTC
2013-07-04 00:00:00,68.8,68.5,30.17,NNE,23,0.0,1.0,99,0.00,,,0.00,WUHU216DAVISVP2,2013-07-04 04:00:00,
2013-07-04 00:30:00,69.3,69.0,30.17,ENE,68,0.0,3.0,99,0.00,,,0.00,WUHU216DAVISVP2,2013-07-04 04:30:00,
2013-07-04 01:00:00,69.3,69.0,30.17,ENE,68,1.0,3.0,99,0.00,,,0.00,WUHU216DAVISVP2,2013-07-04 05:00:00,
2013-07-04 01:30:00,68.8,68.5,30.17,SW,225,0.0,1.0,99,0.00,,,0.00,WUHU216DAVISVP2,2013-07-04 05:30:00,
2013-07-04 02:00:00,68.3,68.0,30.16,North,0,0.0,2.0,99,0.00,,,0.00,WUHU216DAVISVP2,2013-07-04 06:00:00,
2013-07-04 02:30:00,68.8,68.5,30.16,North,0,0.0,1.0,99,0.00,,,0.00,WUHU216DAVISVP2,2013-07-04 06:30:00,
2013-07-04 03:00:00,68.7,68.4,30.17,NNE,23,0.0,1.0,99,0.00,,,0.00,WUHU216DAVISVP2,2013-07-04 07:00:00,
2013-07-04 03:30:00,70.2,69.9,30.17,NE,45,0.0,4.0,99,0.00,,,0.00,WUHU216DAVISVP2,2013-07-04 07:30:00,
2013-07-04 04:00:00,71.4,71.4,30.16,ENE,68,0.0,2.0,100,0.00,,,0.00,WUHU216DAVISVP2,2013-07-04 08:00:00,
2013-07-04 04:30:00,72.2,71.3,30.16,ENE,68,1.0,7.0,97,0.00,,,0.00,WUHU216DAVISVP2,2013-07-04 08:30:00,
2013-07-04 05:00:00,71.1,70.8,30.17,ENE,68,0.0,2.0,99,0.00,,,0.00,WUHU216DAVISVP2,2013-07-04 09:00:00,
2013-07-04 05:30:00,71.0,70.7,30.17,NE,45,1.0,3.0,99,0.01,,,0.01,WUHU216DAVISVP2,2013-07-04 09:30:00,
2013-07-04 06:00:00,71.9,71.3,30.17,ENE,68,0.0,3.0,98,0.00,,,0.01,WUHU216DAVISVP2,2013-07-04 10:00:00,
2013-07-04 06:30:00,71.0,70.7,30.18,ENE,68,0.0,2.0,99,0.00,,,0.01,WUHU216DAVISVP2,2013-07-04 10:30:00,
2013-07-04 07:00:00,72.0,71.4,30.18,East,90,0.0,1.0,98,0.00,,,0.01,WUHU216DAVISVP2,2013-07-04 11:00:00,
2013-07-04 07:30:00,73.0,72.1,30.19,NE,45,0.0,2.0,97,0.00,,,0.01,WUHU216DAVISVP2,2013-07-04 11:30:00,
2013-07-04 08:00:00,74.9,73.4,30.19,ENE,68,0.0,3.0,95,0.00,,,0.01,WUHU216DAVISVP2,2013-07-04 12:00:00,
2013-07-04 08:30:00,78.3,73.8,30.19,SE,135,1.0,9.0,86,0.00,,,0.01,WUHU216DAVISVP2,2013-07-04 12:30:00,
2013-07-04 09:16:00,79.0,73.4,30.19,South,172,1.0,6.0,83,0.00,,,0.01,WUHU216DAVISVP2,2013-07-04 13:16:00,
2013-07-04 09:17:00,79.0,73.4,30.19,SSE,158,2.0,6.0,83,0.00,,,0.01,WUHU216DAVISVP2,2013-07-04 13:17:00,
2013-07-04 09:27:00,79.0,73.4,30.19,South,191,2.0,6.0,83,0.00,,,0.01,WUHU216DAVISVP2,2013-07-04 13:27:00,
2013-07-04 09:32:00,78.7,73.2,30.19,SE,125,3.0,8.0,83,0.00,,,0.01,WUHU216DAVISVP2,2013-07-04 13:32:00,
2013-07-04 09:37:00,78.7,72.8,30.19,SSW,198,5.0,8.0,82,0.00,,,0.01,WUHU216DAVISVP2,2013-07-04 13:37:00,
2013-07-04 09:42:00,78.7,72.8,30.19,SSE,161,3.0,9.0,82,0.00,,,0.01,WUHU216DAVISVP2,2013-07-04 13:42:00,
2013-07-04 09:47:00,78.8,73.3,30.19,ESE,117,2.0,9.0,83,0.00,,,0.01,WUHU216DAVISVP2,2013-07-04 13:47:00,
2013-07-04 09:52:00,78.9,73.0,30.19,SSE,150,3.0,9.0,82,0.00,,,0.01,WUHU216DAVISVP2,2013-07-04 13:52:00,
2013-07-04 09:57:00,78.9,73.7,30.19,SSE,155,1.0,9.0,84,0.00,,,0.01,WUHU216DAVISVP2,2013-07-04 13:57:00,
2013-07-04 10:02:00,79.0,73.5,30.19,South,182,3.0,9.0,83,0.00,,,0.01,WUHU216DAVISVP2,2013-07-04 14:02:00,
2013-07-04 10:07:00,79.2,73.0,30.19,SE,131,8.0,11.0,81,0.00,,,0.01,WUHU216DAVISVP2,2013-07-04 14:07:00,
2013-07-04 10:12:00,79.7,73.8,30.18,SSE,156,0.0,11.0,82,0.00,,,0.01,WUHU216DAVISVP2,2013-07-04 14:12:00,
2013-07-04 10:17:00,79.8,73.9,30.18,WSW,250,1.0,11.0,82,0.00,,,0.01,WUHU216DAVISVP2,2013-07-04 14:17:00,
2013-07-04 10:22:00,80.3,74.4,30.18,SSE,165,0.0,11.0,82,0.00,,,0.01,WUHU216DAVISVP2,2013-07-04 14:22:00,
2013-07-04 10:27:00,80.1,74.2,30.18,SE,146,5.0,8.0,82,0.00,,,0.01,WUHU216DAVISVP2,2013-07-04 14:27:00,
2013-07-04 10:32:00,80.4,74.0,30.18,East,90,3.0,9.0,81,0.00,,,0.01,WUHU216DAVISVP2,2013-07-04 14:32:00,
2013-07-04 10:37:00,80.7,74.0,30.18,SE,127,3.0,9.0,80,0.00,,,0.01,WUHU216DAVISVP2,2013-07-04 14:37:00,
2013-07-04 10:42:00,80.8,74.9,30.18,ESE,108,2.0,11.0,82,0.00,,,0.01,WUHU216DAVISVP2,2013-07-04 14:42:00,
2013-07-04 10:47:00,81.2,74.9,30.17,SSW,198,0.0,11.0,81,0.00,,,0.01,WUHU216DAVISVP2,2013-07-04 14:47:00,
2013-07-04 10:52:00,81.7,75.0,30.18,South,169,1.0,11.0,80,0.00,,,0.01,WUHU216DAVISVP2,2013-07-04 14:52:00,
2013-07-04 10:57:00,81.5,74.1,30.18,SW,232,2.0,9.0,78,0.00,,,0.01,WUHU216DAVISVP2,2013-07-04 14:57:00,
2013-07-04 11:02:00,80.8,73.8,30.18,SW,228,2.0,9.0,79,0.00,,,0.01,WUHU216DAVISVP2,2013-07-04 15:02:00,
2013-07-04 11:07:00,80.8,73.8,30.18,SW,229,5.0,8.0,79,0.00,,,0.01,WUHU216DAVISVP2,2013-07-04 15:07:00,
2013-07-04 11:12:00,81.0,74.0,30.18,SE,146,3.0,8.0,79,0.00,,,0.01,WUHU216DAVISVP2,2013-07-04 15:12:00,
2013-07-04 11:17:00,81.0,74.0,30.18,West,269,2.0,7.0,79,0.00,,,0.01,WUHU216DAVISVP2,2013-07-04 15:17:00,
2013-07-04 11:22:00,80.7,74.8,30.17,WSW,249,3.0,7.0,82,0.00,,,0.01,WUHU216DAVISVP2,2013-07-04 15:22:00,
2013-07-04 11:27:00,81.0,75.1,30.17,WSW,246,0.0,7.0,82,0.00,,,0.01,WUHU216DAVISVP2,2013-07-04 15:27:00,
2013-07-04 11:32:00,81.6,75.6,30.17,SSW,197,2.0,6.0,82,0.00,,,0.01,WUHU216DAVISVP2,2013-07-04 15:32:00,
2013-07-04 11:37:00,82.0,75.0,30.17,SSE,150,5.0,9.0,79,0.00,,,0.01,WUHU216DAVISVP2,2013-07-04 15:37:00,
2013-07-04 11:42:00,83.0,75.6,30.17,SSE,148,9.0,9.0,78,0.00,,,0.01,WUHU216DAVISVP2,2013-07-04 15:42:00,
2013-07-04 11:47:00,82.6,74.8,30.16,SW,226,4.0,9.0,77,0.00,,,0.01,WUHU216DAVISVP2,2013-07-04 15:47:00,
2013-07-04 11:52:00,82.1,74.7,30.16,SW,225,3.0,9.0,78,0.00,,,0.01,WUHU216DAVISVP2,2013-07-04 15:52:00,
2013-07-04 11:57:00,82.1,75.7,30.16,South,175,1.0,9.0,81,0.00,,,0.01,WUHU216DAVISVP2,2013-07-04 15:57:00,
2013-07-04 12:02:00,82.8,74.6,30.16,SW,231,3.0,8.0,76,0.00,,,0.01,WUHU216DAVISVP2,2013-07-04 16:02:00,
2013-07-04 12:07:00,83.3,75.1,30.16,East,86,4.0,8.0,76,0.00,,,0.01,WUHU216DAVISVP2,2013-07-04 16:07:00,
2013-07-04 12:12:00,83.2,75.0,30.16,WSW,240,2.0,7.0,76,0.00,,,0.01,WUHU216DAVISVP2,2013-07-04 16:12:00,
2013-07-04 12:17:00,83.2,75.0,30.15,SE,141,0.0,7.0,76,0.00,,,0.01,WUHU216DAVISVP2,2013-07-04 16:17:00,
2013-07-04 12:22:00,83.0,75.2,30.15,SSW,198,0.0,6.0,77,0.00,,,0.01,WUHU216DAVISVP2,2013-07-04 16:22:00,
2013-07-04 12:27:00,82.9,75.3,30.15,SSE,148,2.0,6.0,78,0.00,,,0.01,WUHU216DAVISVP2,2013-07-04 16:27:00,
2013-07-04 12:32:00,83.3,75.5,30.15,SSW,210,4.0,6.0,77,0.00,,,0.01,WUHU216DAVISVP2,2013-07-04 16:32:00,
2013-07-04 12:37:00,83.7,75.9,30.15,SSE,157,2.0,6.0,77,0.00,,,0.01,WUHU216DAVISVP2,2013-07-04 16:37:00,
2013-07-04 12:42:00,84.1,75.9,30.15,SSW,212,8.0,10.0,76,0.00,,,0.01,WUHU216DAVISVP2,2013-07-04 16:42:00,
2013-07-04 12:47:00,84.4,75.4,30.14,SW,224,1.0,10.0,74,0.00,,,0.01,WUHU216DAVISVP2,2013-07-04 16:47:00,
2013-07-04 12:52:00,84.8,75.8,30.14,SSW,199,3.0,10.0,74,0.00,,,0.01,WUHU216DAVISVP2,2013-07-04 16:52:00,
2013-07-04 12:57:00,85.7,76.9,30.14,SSE,160,2.0,10.0,75,0.00,,,0.01,WUHU216DAVISVP2,2013-07-04 16:57:00,
2013-07-04 13:02:00,86.1,75.4,30.13,SSE,157,4.0,8.0,70,0.00,,,0.01,WUHU216DAVISVP2,2013-07-04 17:02:00,
2013-07-04 13:07:00,86.3,76.0,30.13,SSW,212,1.0,8.0,71,0.00,,,0.01,WUHU216DAVISVP2,2013-07-04 17:07:00,
2013-07-04 13:12:00,86.3,77.6,30.13,South,173,4.0,12.0,75,0.00,,,0.01,WUHU216DAVISVP2,2013-07-04 17:12:00,
2013-07-04 13:17:00,86.3,75.2,30.12,SE,139,5.0,12.0,69,0.00,,,0.01,WUHU216DAVISVP2,2013-07-04 17:17:00,
2013-07-04 13:22:00,85.9,74.1,30.12,South,169,4.0,12.0,68,0.00,,,0.01,WUHU216DAVISVP2,2013-07-04 17:22:00,
2013-07-04 13:27:00,85.8,75.6,30.12,SE,132,3.0,12.0,71,0.00,,,0.01,WUHU216DAVISVP2,2013-07-04 17:27:00,
2013-07-04 13:32:00,85.2,74.6,30.12,SE,124,5.0,12.0,70,0.00,,,0.01,WUHU216DAVISVP2,2013-07-04 17:32:00,
2013-07-04 13:37:00,85.0,75.6,30.12,WSW,245,4.0,11.0,73,0.00,,,0.01,WUHU216DAVISVP2,2013-07-04 17:37:00,
2013-07-04 13:42:00,84.9,74.7,30.11,SSE,160,2.0,10.0,71,0.00,,,0.01,WUHU216DAVISVP2,2013-07-04 17:42:00,
2013-07-04 13:47:00,85.9,75.6,30.11,WSW,240,2.0,10.0,71,0.00,,,0.01,WUHU216DAVISVP2,2013-07-04 17:47:00,
2013-07-04 13:52:00,85.9,76.2,30.11,East,98,7.0,8.0,73,0.00,,,0.01,WUHU216DAVISVP2,2013-07-04 17:52:00,
2013-07-04 13:57:00,85.9,74.8,30.11,SSE,167,4.0,12.0,69,0.00,,,0.01,WUHU216DAVISVP2,2013-07-04 17:57:00,
2013-07-04 14:02:00,86.5,77.4,30.10,SE,138,7.0,12.0,74,0.00,,,0.01,WUHU216DAVISVP2,2013-07-04 18:02:00,
2013-07-04 14:07:00,86.3,75.2,30.10,SSE,155,3.0,14.0,69,0.00,,,0.01,WUHU216DAVISVP2,2013-07-04 18:07:00,
2013-07-04 14:12:00,86.3,75.2,30.11,SE,133,7.0,14.0,69,0.00,,,0.01,WUHU216DAVISVP2,2013-07-04 18:12:00,
2013-07-04 14:17:00,86.5,74.2,30.11,SSE,167,0.0,14.0,67,0.00,,,0.01,WUHU216DAVISVP2,2013-07-04 18:17:00,
2013-07-04 14:22:00,86.4,74.0,30.11,ESE,116,8.0,11.0,66,0.00,,,0.01,WUHU216DAVISVP2,2013-07-04 18:22:00,
2013-07-04 14:27:00,86.3,73.4,30.11,South,186,3.0,12.0,65,0.00,,,0.01,WUHU216DAVISVP2,2013-07-04 18:27:00,
2013-07-04 14:32:00,86.8,76.5,30.11,SSE,167,4.0,12.0,71,0.00,,,0.01,WUHU216DAVISVP2,2013-07-04 18:32:00,
2013-07-04 14:37:00,86.9,76.2,30.10,ESE,123,6.0,12.0,70,0.00,,,0.01,WUHU216DAVISVP2,2013-07-04 18:37:00,
2013-07-04 14:42:00,86.9,72.8,30.10,SSW,193,7.0,12.0,63,0.00,,,0.01,WUHU216DAVISVP2,2013-07-04 18:42:00,
2013-07-04 14:47:00,87.0,74.5,30.10,SE,142,5.0,12.0,66,0.00,,,0.01,WUHU216DAVISVP2,2013-07-04 18:47:00,
2013-07-04 14:52:00,87.1,73.3,30.10,SE,124,9.0,12.0,63,0.00,,,0.01,WUHU216DAVISVP2,2013-07-04 18:52:00,
2013-07-04 14:57:00,87.0,74.5,30.10,SE,136,4.0,12.0,66,0.00,,,0.01,WUHU216DAVISVP2,2013-07-04 18:57:00,
2013-07-04 15:02:00,86.8,75.2,30.09,SW,221,3.0,11.0,68,0.00,,,0.01,WUHU216DAVISVP2,2013-07-04 19:02:00,
2013-07-04 15:07:00,86.9,73.5,30.09,SE,141,5.0,11.0,64,0.00,,,0.01,WUHU216DAVISVP2,2013-07-04 19:07:00,
2013-07-04 15:12:00,87.5,74.1,30.09,SSE,151,6.0,11.0,64,0.00,,,0.01,WUHU216DAVISVP2,2013-07-04 19:12:00,
2013-07-04 15:17:00,87.5,73.2,30.09,South,171,3.0,11.0,62,0.00,,,0.01,WUHU216DAVISVP2,2013-07-04 19:17:00,
2013-07-04 15:22:00,86.9,74.5,30.09,SSW,207,5.0,11.0,66,0.00,,,0.01,WUHU216DAVISVP2,2013-07-04 19:22:00,
2013-07-04 15:27:00,86.3,73.1,30.09,West,259,2.0,11.0,65,0.00,,,0.01,WUHU216DAVISVP2,2013-07-04 19:27:00,
2013-07-04 15:32:00,84.2,72.5,30.09,NW,315,2.0,11.0,68,0.00,,,0.01,WUHU216DAVISVP2,2013-07-04 19:32:00,
2013-07-04 15:37:00,81.7,72.6,30.09,North,354,2.0,10.0,74,0.00,,,0.01,WUHU216DAVISVP2,2013-07-04 19:37:00,
2013-07-04 15:42:00,80.4,73.1,30.09,NNW,346,3.0,11.0,78,0.00,,,0.01,WUHU216DAVISVP2,2013-07-04 19:42:00,
2013-07-04 15:47:00,79.4,72.3,30.09,NW,324,0.0,11.0,79,0.00,,,0.01,WUHU216DAVISVP2,2013-07-04 19:47:00,
2013-07-04 15:52:00,78.8,72.6,30.12,WSW,254,7.0,13.0,81,0.00,,,0.01,WUHU216DAVISVP2,2013-07-04 19:52:00,
2013-07-04 15:57:00,78.3,72.0,30.11,North,11,0.0,13.0,81,0.00,,,0.01,WUHU216DAVISVP2,2013-07-04 19:57:00,
2013-07-04 16:02:00,78.3,72.4,30.10,NNE,33,6.0,13.0,82,0.00,,,0.01,WUHU216DAVISVP2,2013-07-04 20:02:00,
2013-07-04 16:07:00,78.9,74.1,30.09,WSW,253,1.0,13.0,85,0.00,,,0.01,WUHU216DAVISVP2,2013-07-04 20:07:00,
2013-07-04 16:12:00,80.0,74.4,30.10,WSW,246,1.0,13.0,83,0.00,,,0.01,WUHU216DAVISVP2,2013-07-04 20:12:00,
2013-07-04 16:17:00,80.8,74.2,30.11,West,260,0.0,13.0,80,0.00,,,0.01,WUHU216DAVISVP2,2013-07-04 20:17:00,
2013-07-04 16:22:00,80.8,73.3,30.11,NW,314,0.0,11.0,78,0.00,,,0.01,WUHU216DAVISVP2,2013-07-04 20:22:00,
2013-07-04 16:27:00,80.5,73.8,30.11,ESE,102,3.0,8.0,80,0.00,,,0.01,WUHU216DAVISVP2,2013-07-04 20:27:00,
2013-07-04 16:32:00,79.4,73.2,30.10,SSW,200,2.0,7.0,81,0.00,,,0.01,WUHU216DAVISVP2,2013-07-04 20:32:00,
2013-07-04 16:37:00,78.6,72.7,30.09,WSW,252,0.0,7.0,82,0.00,,,0.01,WUHU216DAVISVP2,2013-07-04 20:37:00,
2013-07-04 16:42:00,78.1,73.3,30.09,NW,326,0.0,7.0,85,0.00,,,0.01,WUHU216DAVISVP2,2013-07-04 20:42:00,
2013-07-04 16:47:00,77.4,72.9,30.10,ESE,123,0.0,7.0,86,0.00,,,0.01,WUHU216DAVISVP2,2013-07-04 20:47:00,
2013-07-04 16:52:00,76.8,72.7,30.11,North,356,0.0,4.0,87,0.03,,,0.04,WUHU216DAVISVP2,2013-07-04 20:52:00,
2013-07-04 16:57:00,75.8,73.0,30.12,North,357,1.0,12.0,91,0.07,,,0.08,WUHU216DAVISVP2,2013-07-04 20:57:00,
2013-07-04 17:02:00,75.0,72.5,30.12,NNE,30,4.0,14.0,92,0.14,,,0.15,WUHU216DAVISVP2,2013-07-04 21:02:00,
2013-07-04 17:07:00,74.5,72.7,30.11,North,2,0.0,14.0,94,0.15,,,0.16,WUHU216DAVISVP2,2013-07-04 21:07:00,
2013-07-04 17:12:00,74.4,72.2,30.12,SW,219,0.0,14.0,93,0.15,,,0.16,WUHU216DAVISVP2,2013-07-04 21:12:00,
2013-07-04 17:17:00,74.5,72.6,30.11,SSE,156,0.0,14.0,94,0.16,,,0.17,WUHU216DAVISVP2,2013-07-04 21:17:00,
2013-07-04 17:22:00,74.6,72.4,30.10,ESE,113,1.0,7.0,93,0.16,,,0.17,WUHU216DAVISVP2,2013-07-04 21:22:00,
2013-07-04 17:27:00,74.8,73.0,30.10,ESE,107,0.0,7.0,94,0.16,,,0.17,WUHU216DAVISVP2,2013-07-04 21:27:00,
2013-07-04 17:32:00,75.2,73.4,30.10,ESE,113,0.0,7.0,94,0.16,,,0.17,WUHU216DAVISVP2,2013-07-04 21:32:00,
2013-07-04 17:37:00,75.4,73.8,30.10,SE,138,2.0,4.0,95,0.16,,,0.17,WUHU216DAVISVP2,2013-07-04 21:37:00,
2013-07-04 17:42:00,75.7,73.2,30.10,SSE,148,4.0,7.0,92,0.16,,,0.17,WUHU216DAVISVP2,2013-07-04 21:42:00,
2013-07-04 17:47:00,75.7,73.2,30.10,SSE,158,3.0,7.0,92,0.16,,,0.17,WUHU216DAVISVP2,2013-07-04 21:47:00,
2013-07-04 17:52:00,76.0,73.5,30.10,SE,143,1.0,7.0,92,0.13,,,0.17,WUHU216DAVISVP2,2013-07-04 21:52:00,
2013-07-04 17:57:00,77.4,74.2,30.09,SSW,203,1.0,7.0,90,0.09,,,0.17,WUHU216DAVISVP2,2013-07-04 21:57:00,
2013-07-04 18:02:00,78.7,75.2,30.09,SSE,159,2.0,7.0,89,0.02,,,0.17,WUHU216DAVISVP2,2013-07-04 22:02:00,
2013-07-04 18:07:00,78.9,74.4,30.09,ESE,113,0.0,4.0,86,0.01,,,0.17,WUHU216DAVISVP2,2013-07-04 22:07:00,
2013-07-04 18:12:00,78.5,74.0,30.10,SE,131,1.0,4.0,86,0.01,,,0.17,WUHU216DAVISVP2,2013-07-04 22:12:00,
2013-07-04 18:17:00,78.1,73.9,30.10,WSW,250,0.0,4.0,87,0.00,,,0.17,WUHU216DAVISVP2,2013-07-04 22:17:00,
2013-07-04 18:22:00,77.8,73.6,30.10,NNW,328,0.0,4.0,87,0.00,,,0.17,WUHU216DAVISVP2,2013-07-04 22:22:00,
2013-07-04 18:27:00,77.4,74.2,30.10,North,359,0.0,4.0,90,0.00,,,0.17,WUHU216DAVISVP2,2013-07-04 22:27:00,
2013-07-04 18:32:00,77.4,74.6,30.10,NNW,333,0.0,4.0,91,0.00,,,0.17,WUHU216DAVISVP2,2013-07-04 22:32:00,
2013-07-04 18:37:00,77.3,74.8,30.10,NNW,340,0.0,3.0,92,0.00,,,0.17,WUHU216DAVISVP2,2013-07-04 22:37:00,
2013-07-04 18:42:00,78.5,75.0,30.10,SE,127,0.0,4.0,89,0.00,,,0.17,WUHU216DAVISVP2,2013-07-04 22:42:00,
2013-07-04 18:47:00,79.5,74.6,30.10,SE,128,2.0,4.0,85,0.00,,,0.17,WUHU216DAVISVP2,2013-07-04 22:47:00,
2013-07-04 18:52:00,78.6,74.1,30.10,SE,131,2.0,6.0,86,0.00,,,0.17,WUHU216DAVISVP2,2013-07-04 22:52:00,
2013-07-04 18:57:00,77.8,74.0,30.09,East,79,0.0,6.0,88,0.00,,,0.17,WUHU216DAVISVP2,2013-07-04 22:57:00,
2013-07-04 19:02:00,77.5,74.0,30.09,SE,130,1.0,6.0,89,0.00,,,0.17,WUHU216DAVISVP2,2013-07-04 23:02:00,
2013-07-04 19:07:00,77.3,74.1,30.09,SE,131,3.0,5.0,90,0.00,,,0.17,WUHU216DAVISVP2,2013-07-04 23:07:00,
2013-07-04 19:12:00,77.8,74.3,30.09,South,170,3.0,7.0,89,0.00,,,0.17,WUHU216DAVISVP2,2013-07-04 23:12:00,
2013-07-04 19:17:00,78.6,74.8,30.09,South,185,2.0,7.0,88,0.00,,,0.17,WUHU216DAVISVP2,2013-07-04 23:17:00,
2013-07-04 19:22:00,78.9,74.4,30.09,South,170,1.0,7.0,86,0.00,,,0.17,WUHU216DAVISVP2,2013-07-04 23:22:00,
2013-07-04 19:27:00,78.7,74.5,30.09,SE,125,0.0,7.0,87,0.00,,,0.17,WUHU216DAVISVP2,2013-07-04 23:27:00,
2013-07-04 19:32:00,78.3,74.8,30.09,SE,136,0.0,7.0,89,0.00,,,0.17,WUHU216DAVISVP2,2013-07-04 23:32:00,
2013-07-04 19:37:00,77.7,74.5,30.09,NE,39,0.0,6.0,90,0.00,,,0.17,WUHU216DAVISVP2,2013-07-04 23:37:00,
2013-07-04 19:42:00,77.5,74.7,30.09,ENE,69,0.0,6.0,91,0.00,,,0.17,WUHU216DAVISVP2,2013-07-04 23:42:00,
2013-07-04 19:47:00,77.7,74.2,30.09,ESE,102,1.0,6.0,89,0.00,,,0.17,WUHU216DAVISVP2,2013-07-04 23:47:00,
2013-07-04 19:52:00,77.4,74.2,30.10,ENE,68,2.0,6.0,90,0.00,,,0.17,WUHU216DAVISVP2,2013-07-04 23:52:00,
2013-07-04 19:57:00,76.6,73.8,30.09,NE,47,1.0,6.0,91,0.00,,,0.17,WUHU216DAVISVP2,2013-07-04 23:57:00,
2013-07-04 20:02:00,75.9,73.7,30.09,NE,49,2.0,6.0,93,0.00,,,0.17,WUHU216DAVISVP2,2013-07-05 00:02:00,
2013-07-04 20:07:00,75.3,73.4,30.09,NE,54,2.0,3.0,94,0.00,,,0.17,WUHU216DAVISVP2,2013-07-05 00:07:00,
2013-07-04 20:12:00,74.8,73.2,30.09,NE,51,1.0,3.0,95,0.00,,,0.17,WUHU216DAVISVP2,2013-07-05 00:12:00,
2013-07-04 20:17:00,74.4,72.8,30.09,ENE,67,0.0,3.0,95,0.00,,,0.17,WUHU216DAVISVP2,2013-07-05 00:17:00,
2013-07-04 20:22:00,74.0,72.4,30.09,ENE,67,0.0,3.0,95,0.00,,,0.17,WUHU216DAVISVP2,2013-07-05 00:22:00,
2013-07-04 20:27:00,73.9,72.7,30.09,NE,46,0.0,2.0,96,0.00,,,0.17,WUHU216DAVISVP2,2013-07-05 00:27:00,
2013-07-04 20:32:00,73.8,72.6,30.09,NE,46,1.0,2.0,96,0.00,,,0.17,WUHU216DAVISVP2,2013-07-05 00:32:00,
2013-07-04 20:37:00,73.5,72.3,30.09,NE,50,0.0,2.0,96,0.00,,,0.17,WUHU216DAVISVP2,2013-07-05 00:37:00,
2013-07-04 20:42:00,73.3,72.1,30.09,NE,50,0.0,2.0,96,0.00,,,0.17,WUHU216DAVISVP2,2013-07-05 00:42:00,
2013-07-04 20:47:00,73.1,72.2,30.10,NE,41,0.0,2.0,97,0.00,,,0.17,WUHU216DAVISVP2,2013-07-05 00:47:00,
2013-07-04 20:52:00,73.2,72.6,30.10,NE,46,2.0,2.0,98,0.00,,,0.17,WUHU216DAVISVP2,2013-07-05 00:52:00,
2013-07-04 20:57:00,73.5,72.9,30.10,ENE,68,1.0,2.0,98,0.00,,,0.17,WUHU216DAVISVP2,2013-07-05 00:57:00,
2013-07-04 21:02:00,73.5,72.6,30.10,NE,52,2.0,2.0,97,0.00,,,0.17,WUHU216DAVISVP2,2013-07-05 01:02:00,
2013-07-04 21:07:00,73.5,72.6,30.10,NE,49,0.0,2.0,97,0.00,,,0.17,WUHU216DAVISVP2,2013-07-05 01:07:00,
2013-07-04 21:12:00,73.2,72.3,30.10,East,94,0.0,2.0,97,0.00,,,0.17,WUHU216DAVISVP2,2013-07-05 01:12:00,
2013-07-04 21:17:00,73.2,72.3,30.10,ENE,74,1.0,2.0,97,0.00,,,0.17,WUHU216DAVISVP2,2013-07-05 01:17:00,
2013-07-04 21:22:00,73.4,72.2,30.10,ENE,68,0.0,2.0,96,0.00,,,0.17,WUHU216DAVISVP2,2013-07-05 01:22:00,
2013-07-04 21:27:00,73.2,72.3,30.11,NE,46,0.0,2.0,97,0.00,,,0.17,WUHU216DAVISVP2,2013-07-05 01:27:00,
2013-07-04 21:32:00,73.0,72.1,30.11,NNE,25,0.0,2.0,97,0.00,,,0.17,WUHU216DAVISVP2,2013-07-05 01:32:00,
2013-07-04 21:37:00,72.9,72.0,30.11,ENE,71,0.0,3.0,97,0.00,,,0.17,WUHU216DAVISVP2,2013-07-05 01:37:00,
2013-07-04 21:42:00,73.0,72.1,30.11,NE,41,2.0,3.0,97,0.00,,,0.17,WUHU216DAVISVP2,2013-07-05 01:42:00,
2013-07-04 21:47:00,73.1,71.9,30.12,NE,49,3.0,3.0,96,0.00,,,0.17,WUHU216DAVISVP2,2013-07-05 01:47:00,
2013-07-04 21:52:00,72.6,71.4,30.12,NE,55,2.0,3.0,96,0.00,,,0.17,WUHU216DAVISVP2,2013-07-05 01:52:00,
2013-07-04 21:57:00,72.4,71.5,30.12,NE,51,2.0,3.0,97,0.00,,,0.17,WUHU216DAVISVP2,2013-07-05 01:57:00,
2013-07-04 22:02:00,72.2,71.3,30.12,ENE,67,2.0,3.0,97,0.00,,,0.17,WUHU216DAVISVP2,2013-07-05 02:02:00,
2013-07-04 22:07:00,72.3,71.4,30.12,NE,51,2.0,3.0,97,0.00,,,0.17,WUHU216DAVISVP2,2013-07-05 02:07:00,
2013-07-04 22:12:00,72.3,71.4,30.12,NE,41,2.0,4.0,97,0.00,,,0.17,WUHU216DAVISVP2,2013-07-05 02:12:00,
2013-07-04 22:17:00,72.1,71.2,30.12,ENE,65,2.0,4.0,97,0.00,,,0.17,WUHU216DAVISVP2,2013-07-05 02:17:00,
2013-07-04 22:22:00,71.8,70.9,30.12,ENE,59,1.0,4.0,97,0.00,,,0.17,WUHU216DAVISVP2,2013-07-05 02:22:00,
2013-07-04 22:27:00,71.4,70.2,30.12,ENE,59,0.0,3.0,96,0.00,,,0.17,WUHU216DAVISVP2,2013-07-05 02:27:00,
2013-07-04 22:32:00,71.2,70.3,30.12,ENE,59,0.0,2.0,97,0.00,,,0.17,WUHU216DAVISVP2,2013-07-05 02:32:00,
2013-07-04 22:37:00,71.2,70.6,30.13,ENE,59,0.0,2.0,98,0.00,,,0.17,WUHU216DAVISVP2,2013-07-05 02:37:00,
2013-07-04 22:42:00,71.1,70.5,30.12,ENE,59,1.0,1.0,98,0.00,,,0.17,WUHU216DAVISVP2,2013-07-05 02:42:00,
2013-07-04 22:47:00,71.1,70.5,30.13,ENE,59,0.0,2.0,98,0.00,,,0.17,WUHU216DAVISVP2,2013-07-05 02:47:00,
2013-07-04 22:52:00,71.0,70.4,30.13,ENE,59,0.0,2.0,98,0.00,,,0.17,WUHU216DAVISVP2,2013-07-05 02:52:00,
2013-07-04 22:57:00,70.9,70.3,30.13,ENE,58,0.0,2.0,98,0.00,,,0.17,WUHU216DAVISVP2,2013-07-05 02:57:00,
2013-07-04 23:02:00,70.9,70.3,30.13,ENE,58,1.0,2.0,98,0.00,,,0.17,WUHU216DAVISVP2,2013-07-05 03:02:00,
2013-07-04 23:07:00,70.7,70.1,30.13,ENE,58,0.0,1.0,98,0.00,,,0.17,WUHU216DAVISVP2,2013-07-05 03:07:00,
2013-07-04 23:12:00,70.8,70.2,30.13,ENE,58,0.0,1.0,98,0.00,,,0.17,WUHU216DAVISVP2,2013-07-05 03:12:00,
2013-07-04 23:17:00,70.8,70.2,30.13,ENE,58,0.0,1.0,98,0.00,,,0.17,WUHU216DAVISVP2,2013-07-05 03:17:00,
2013-07-04 23:22:00,70.7,70.1,30.13,ENE,58,0.0,2.0,98,0.00,,,0.17,WUHU216DAVISVP2,2013-07-05 03:22:00,
2013-07-04 23:27:00,70.7,70.1,30.13,ENE,58,0.0,2.0,98,0.00,,,0.17,WUHU216DAVISVP2,2013-07-05 03:27:00,
2013-07-04 23:32:00,70.7,70.1,30.13,ENE,58,1.0,2.0,98,0.00,,,0.17,WUHU216DAVISVP2,2013-07-05 03:32:00,
2013-07-04 23:37:00,70.6,70.0,30.13,NE,35,0.0,2.0,98,0.00,,,0.17,WUHU216DAVISVP2,2013-07-05 03:37:00,
2013-07-04 23:42:00,70.7,70.4,30.13,NE,40,2.0,2.0,99,0.00,,,0.17,WUHU216DAVISVP2,2013-07-05 03:42:00,
2013-07-04 23:47:00,70.7,70.4,30.14,NE,40,0.0,2.0,99,0.00,,,0.17,WUHU216DAVISVP2,2013-07-05 03:47:00,
2013-07-04 23:52:00,70.7,70.4,30.14,ENE,70,0.0,2.0,99,0.00,,,0.17,WUHU216DAVISVP2,2013-07-05 03:52:00,
2013-07-04 23:57:00,70.7,70.4,30.14,NE,38,0.0,2.0,99,0.00,,,0.17,WUHU216DAVISVP2,2013-07-05 03:57:00,